sensor_id;sensor_type;location;lat;lon;timestamp;P1;durP1;ratioP1;P2;durP2;ratioP2
79178;SDS011;68608;49.904;16.436;2023-08-20T00:01:45;15.10;;;13.82;;
79178;SDS011;68608;49.904;16.436;2023-08-20T00:04:11;13.50;;;12.50;;
79178;SDS011;68608;49.904;16.436;2023-08-20T00:06:38;13.48;;;12.48;;
79178;SDS011;68608;49.904;16.436;2023-08-20T00:09:04;11.32;;;10.43;;
79178;SDS011;68608;49.904;16.436;2023-08-20T00:11:32;13.48;;;12.48;;
79178;SDS011;68608;49.904;16.436;2023-08-20T00:13:58;14.30;;;13.20;;
79178;SDS011;68608;49.904;16.436;2023-08-20T00:16:25;13.55;;;12.50;;
79178;SDS011;68608;49.904;16.436;2023-08-20T00:18:51;15.18;;;13.95;;
79178;SDS011;68608;49.904;16.436;2023-08-20T00:21:20;15.05;;;13.85;;
79178;SDS011;68608;49.904;16.436;2023-08-20T00:23:46;15.02;;;13.93;;
79178;SDS011;68608;49.904;16.436;2023-08-20T00:26:12;15.40;;;14.05;;
79178;SDS011;68608;49.904;16.436;2023-08-20T00:28:38;15.00;;;13.60;;
79178;SDS011;68608;49.904;16.436;2023-08-20T00:31:04;15.27;;;13.98;;
79178;SDS011;68608;49.904;16.436;2023-08-20T00:33:31;15.30;;;14.02;;
79178;SDS011;68608;49.904;16.436;2023-08-20T00:35:57;14.30;;;13.20;;
79178;SDS011;68608;49.904;16.436;2023-08-20T00:38:23;13.27;;;12.27;;
79178;SDS011;68608;49.904;16.436;2023-08-20T00:40:49;15.15;;;13.45;;
79178;SDS011;68608;49.904;16.436;2023-08-20T00:43:15;15.75;;;14.45;;
79178;SDS011;68608;49.904;16.436;2023-08-20T00:45:41;13.30;;;12.20;;
79178;SDS011;68608;49.904;16.436;2023-08-20T00:48:08;15.60;;;14.45;;
79178;SDS011;68608;49.904;16.436;2023-08-20T00:50:34;14.75;;;13.55;;
79178;SDS011;68608;49.904;16.436;2023-08-20T00:53:00;14.88;;;13.65;;
79178;SDS011;68608;49.904;16.436;2023-08-20T00:55:27;15.68;;;14.48;;
79178;SDS011;68608;49.904;16.436;2023-08-20T00:57:54;15.95;;;14.65;;
79178;SDS011;68608;49.904;16.436;2023-08-20T01:00:23;15.40;;;14.10;;
79178;SDS011;68608;49.904;16.436;2023-08-20T01:02:49;17.40;;;16.00;;
79178;SDS011;68608;49.904;16.436;2023-08-20T01:05:16;15.18;;;14.07;;
79178;SDS011;68608;49.904;16.436;2023-08-20T01:12:56;16.02;;;14.70;;
79178;SDS011;68608;49.904;16.436;2023-08-20T01:15:23;16.65;;;15.25;;
79178;SDS011;68608;49.904;16.436;2023-08-20T01:17:49;16.30;;;15.00;;
79178;SDS011;68608;49.904;16.436;2023-08-20T01:20:16;17.85;;;16.35;;
79178;SDS011;68608;49.904;16.436;2023-08-20T01:27:51;17.25;;;15.63;;
79178;SDS011;68608;49.904;16.436;2023-08-20T01:30:19;15.85;;;14.65;;
79178;SDS011;68608;49.904;16.436;2023-08-20T01:32:46;14.57;;;13.48;;
79178;SDS011;68608;49.904;16.436;2023-08-20T01:35:15;12.50;;;11.60;;
79178;SDS011;68608;49.904;16.436;2023-08-20T01:37:41;12.98;;;11.88;;
79178;SDS011;68608;49.904;16.436;2023-08-20T01:40:08;11.90;;;11.00;;
79178;SDS011;68608;49.904;16.436;2023-08-20T01:42:36;12.18;;;11.27;;
79178;SDS011;68608;49.904;16.436;2023-08-20T01:45:02;12.75;;;11.57;;
79178;SDS011;68608;49.904;16.436;2023-08-20T01:47:29;12.32;;;11.32;;
79178;SDS011;68608;49.904;16.436;2023-08-20T01:49:55;11.60;;;10.75;;
79178;SDS011;68608;49.904;16.436;2023-08-20T01:52:21;15.30;;;14.05;;
79178;SDS011;68608;49.904;16.436;2023-08-20T01:54:48;13.77;;;12.60;;
79178;SDS011;68608;49.904;16.436;2023-08-20T01:57:14;14.95;;;13.77;;
79178;SDS011;68608;49.904;16.436;2023-08-20T01:59:40;14.02;;;12.82;;
79178;SDS011;68608;49.904;16.436;2023-08-20T02:02:07;15.40;;;14.07;;
79178;SDS011;68608;49.904;16.436;2023-08-20T02:04:33;12.50;;;11.35;;
79178;SDS011;68608;49.904;16.436;2023-08-20T02:06:59;13.23;;;12.13;;
79178;SDS011;68608;49.904;16.436;2023-08-20T02:09:25;12.82;;;11.85;;
79178;SDS011;68608;49.904;16.436;2023-08-20T02:11:51;11.73;;;10.82;;
79178;SDS011;68608;49.904;16.436;2023-08-20T02:14:20;14.85;;;13.68;;
79178;SDS011;68608;49.904;16.436;2023-08-20T02:16:47;14.82;;;13.63;;
79178;SDS011;68608;49.904;16.436;2023-08-20T02:19:13;14.80;;;13.70;;
79178;SDS011;68608;49.904;16.436;2023-08-20T02:21:39;14.50;;;13.38;;
79178;SDS011;68608;49.904;16.436;2023-08-20T02:24:06;15.05;;;13.82;;
79178;SDS011;68608;49.904;16.436;2023-08-20T02:26:32;16.10;;;14.70;;
79178;SDS011;68608;49.904;16.436;2023-08-20T02:28:58;17.15;;;15.85;;
79178;SDS011;68608;49.904;16.436;2023-08-20T02:31:24;16.52;;;15.10;;
79178;SDS011;68608;49.904;16.436;2023-08-20T02:33:50;17.83;;;16.38;;
79178;SDS011;68608;49.904;16.436;2023-08-20T02:36:16;16.05;;;14.65;;
79178;SDS011;68608;49.904;16.436;2023-08-20T02:38:44;15.68;;;14.38;;
79178;SDS011;68608;49.904;16.436;2023-08-20T02:41:10;16.33;;;15.10;;
79178;SDS011;68608;49.904;16.436;2023-08-20T02:43:37;17.55;;;16.15;;
79178;SDS011;68608;49.904;16.436;2023-08-20T02:46:03;16.55;;;15.15;;
79178;SDS011;68608;49.904;16.436;2023-08-20T02:48:29;16.73;;;15.23;;
79178;SDS011;68608;49.904;16.436;2023-08-20T02:50:56;14.43;;;13.23;;
79178;SDS011;68608;49.904;16.436;2023-08-20T02:53:22;11.43;;;10.57;;
79178;SDS011;68608;49.904;16.436;2023-08-20T02:55:48;12.77;;;11.80;;
79178;SDS011;68608;49.904;16.436;2023-08-20T02:58:14;12.90;;;11.70;;
79178;SDS011;68608;49.904;16.436;2023-08-20T03:00:41;15.68;;;14.48;;
79178;SDS011;68608;49.904;16.436;2023-08-20T03:03:10;17.23;;;15.73;;
79178;SDS011;68608;49.904;16.436;2023-08-20T03:05:36;13.52;;;12.45;;
79178;SDS011;68608;49.904;16.436;2023-08-20T03:08:02;15.70;;;14.32;;
79178;SDS011;68608;49.904;16.436;2023-08-20T03:10:29;13.15;;;11.90;;
79178;SDS011;68608;49.904;16.436;2023-08-20T03:13:01;14.48;;;13.38;;
79178;SDS011;68608;49.904;16.436;2023-08-20T03:15:28;12.68;;;11.68;;
79178;SDS011;68608;49.904;16.436;2023-08-20T03:17:54;14.90;;;13.80;;
79178;SDS011;68608;49.904;16.436;2023-08-20T03:20:20;15.35;;;14.05;;
79178;SDS011;68608;49.904;16.436;2023-08-20T03:22:46;13.82;;;12.73;;
79178;SDS011;68608;49.904;16.436;2023-08-20T03:25:12;14.35;;;13.07;;
79178;SDS011;68608;49.904;16.436;2023-08-20T03:27:38;15.80;;;14.60;;
79178;SDS011;68608;49.904;16.436;2023-08-20T03:30:04;16.80;;;15.40;;
79178;SDS011;68608;49.904;16.436;2023-08-20T03:32:31;15.48;;;14.23;;
79178;SDS011;68608;49.904;16.436;2023-08-20T03:34:57;16.67;;;15.27;;
79178;SDS011;68608;49.904;16.436;2023-08-20T03:37:30;16.92;;;15.52;;
79178;SDS011;68608;49.904;16.436;2023-08-20T03:39:56;17.67;;;16.27;;
79178;SDS011;68608;49.904;16.436;2023-08-20T03:42:22;15.25;;;14.05;;
79178;SDS011;68608;49.904;16.436;2023-08-20T03:44:48;12.70;;;11.60;;
79178;SDS011;68608;49.904;16.436;2023-08-20T03:47:14;15.90;;;14.68;;
79178;SDS011;68608;49.904;16.436;2023-08-20T03:49:40;17.30;;;15.90;;
79178;SDS011;68608;49.904;16.436;2023-08-20T03:52:06;16.08;;;14.73;;
79178;SDS011;68608;49.904;16.436;2023-08-20T03:54:33;18.75;;;17.00;;
79178;SDS011;68608;49.904;16.436;2023-08-20T03:56:59;17.33;;;15.93;;
79178;SDS011;68608;49.904;16.436;2023-08-20T03:59:25;18.05;;;16.55;;
79178;SDS011;68608;49.904;16.436;2023-08-20T04:01:51;17.33;;;15.93;;
79178;SDS011;68608;49.904;16.436;2023-08-20T04:04:17;18.08;;;16.58;;
79178;SDS011;68608;49.904;16.436;2023-08-20T04:06:43;18.13;;;16.65;;
79178;SDS011;68608;49.904;16.436;2023-08-20T04:09:10;18.02;;;16.42;;
79178;SDS011;68608;49.904;16.436;2023-08-20T04:11:36;18.83;;;17.20;;
79178;SDS011;68608;49.904;16.436;2023-08-20T04:14:02;17.77;;;16.38;;
79178;SDS011;68608;49.904;16.436;2023-08-20T04:16:29;18.35;;;16.85;;
79178;SDS011;68608;49.904;16.436;2023-08-20T04:18:55;18.23;;;16.65;;
79178;SDS011;68608;49.904;16.436;2023-08-20T04:21:21;18.30;;;16.80;;
79178;SDS011;68608;49.904;16.436;2023-08-20T04:23:47;16.80;;;15.50;;
79178;SDS011;68608;49.904;16.436;2023-08-20T04:26:13;17.90;;;16.50;;
79178;SDS011;68608;49.904;16.436;2023-08-20T04:28:39;19.27;;;17.77;;
79178;SDS011;68608;49.904;16.436;2023-08-20T04:31:05;17.08;;;15.55;;
79178;SDS011;68608;49.904;16.436;2023-08-20T04:33:31;18.83;;;17.33;;
79178;SDS011;68608;49.904;16.436;2023-08-20T04:35:57;15.30;;;14.10;;
79178;SDS011;68608;49.904;16.436;2023-08-20T04:38:23;14.43;;;13.23;;
79178;SDS011;68608;49.904;16.436;2023-08-20T04:40:50;15.68;;;14.38;;
79178;SDS011;68608;49.904;16.436;2023-08-20T04:43:16;13.80;;;12.70;;
79178;SDS011;68608;49.904;16.436;2023-08-20T04:45:42;12.40;;;11.40;;
79178;SDS011;68608;49.904;16.436;2023-08-20T04:48:08;15.55;;;14.18;;
79178;SDS011;68608;49.904;16.436;2023-08-20T04:50:34;11.68;;;10.80;;
79178;SDS011;68608;49.904;16.436;2023-08-20T04:53:00;10.88;;;10.00;;
79178;SDS011;68608;49.904;16.436;2023-08-20T04:55:27;11.15;;;10.05;;
79178;SDS011;68608;49.904;16.436;2023-08-20T04:57:53;12.75;;;11.73;;
79178;SDS011;68608;49.904;16.436;2023-08-20T05:00:19;10.82;;;10.02;;
79178;SDS011;68608;49.904;16.436;2023-08-20T05:02:45;9.57;;;8.77;;
79178;SDS011;68608;49.904;16.436;2023-08-20T05:05:12;9.75;;;8.95;;
79178;SDS011;68608;49.904;16.436;2023-08-20T05:07:38;13.05;;;11.88;;
79178;SDS011;68608;49.904;16.436;2023-08-20T05:10:04;13.15;;;12.05;;
79178;SDS011;68608;49.904;16.436;2023-08-20T05:12:30;10.82;;;10.07;;
79178;SDS011;68608;49.904;16.436;2023-08-20T05:14:56;11.95;;;11.05;;
79178;SDS011;68608;49.904;16.436;2023-08-20T05:17:22;12.25;;;11.23;;
79178;SDS011;68608;49.904;16.436;2023-08-20T05:19:48;11.00;;;10.20;;
79178;SDS011;68608;49.904;16.436;2023-08-20T05:22:14;13.00;;;11.82;;
79178;SDS011;68608;49.904;16.436;2023-08-20T05:24:40;11.68;;;10.70;;
79178;SDS011;68608;49.904;16.436;2023-08-20T05:27:14;10.00;;;9.38;;
79178;SDS011;68608;49.904;16.436;2023-08-20T05:29:41;10.77;;;10.07;;
79178;SDS011;68608;49.904;16.436;2023-08-20T05:32:08;12.63;;;11.60;;
79178;SDS011;68608;49.904;16.436;2023-08-20T05:34:34;11.60;;;10.77;;
79178;SDS011;68608;49.904;16.436;2023-08-20T05:37:00;11.43;;;10.63;;
79178;SDS011;68608;49.904;16.436;2023-08-20T05:39:26;11.88;;;11.05;;
79178;SDS011;68608;49.904;16.436;2023-08-20T05:41:53;12.55;;;11.65;;
79178;SDS011;68608;49.904;16.436;2023-08-20T05:44:19;12.23;;;11.32;;
79178;SDS011;68608;49.904;16.436;2023-08-20T05:46:46;9.50;;;8.75;;
79178;SDS011;68608;49.904;16.436;2023-08-20T05:49:12;12.60;;;11.65;;
79178;SDS011;68608;49.904;16.436;2023-08-20T05:51:38;11.43;;;10.63;;
79178;SDS011;68608;49.904;16.436;2023-08-20T05:54:05;9.95;;;9.35;;
79178;SDS011;68608;49.904;16.436;2023-08-20T05:56:34;10.57;;;9.88;;
79178;SDS011;68608;49.904;16.436;2023-08-20T05:59:00;11.43;;;10.38;;
79178;SDS011;68608;49.904;16.436;2023-08-20T06:01:26;11.18;;;10.38;;
79178;SDS011;68608;49.904;16.436;2023-08-20T06:03:52;11.85;;;11.05;;
79178;SDS011;68608;49.904;16.436;2023-08-20T06:06:18;10.13;;;9.43;;
79178;SDS011;68608;49.904;16.436;2023-08-20T06:08:44;10.52;;;9.73;;
79178;SDS011;68608;49.904;16.436;2023-08-20T06:11:10;9.77;;;9.18;;
79178;SDS011;68608;49.904;16.436;2023-08-20T06:13:36;8.45;;;7.95;;
79178;SDS011;68608;49.904;16.436;2023-08-20T06:16:02;11.07;;;10.27;;
79178;SDS011;68608;49.904;16.436;2023-08-20T06:18:28;11.95;;;11.05;;
79178;SDS011;68608;49.904;16.436;2023-08-20T06:20:54;12.50;;;11.70;;
79178;SDS011;68608;49.904;16.436;2023-08-20T06:23:21;11.13;;;10.25;;
79178;SDS011;68608;49.904;16.436;2023-08-20T06:25:47;11.02;;;10.15;;
79178;SDS011;68608;49.904;16.436;2023-08-20T06:28:13;10.88;;;10.00;;
79178;SDS011;68608;49.904;16.436;2023-08-20T06:30:39;9.80;;;9.02;;
79178;SDS011;68608;49.904;16.436;2023-08-20T06:33:05;9.15;;;8.50;;
79178;SDS011;68608;49.904;16.436;2023-08-20T06:35:31;9.73;;;9.13;;
79178;SDS011;68608;49.904;16.436;2023-08-20T06:37:59;10.02;;;9.07;;
79178;SDS011;68608;49.904;16.436;2023-08-20T06:40:25;9.70;;;9.07;;
79178;SDS011;68608;49.904;16.436;2023-08-20T06:42:51;9.85;;;9.07;;
79178;SDS011;68608;49.904;16.436;2023-08-20T06:45:17;10.07;;;9.48;;
79178;SDS011;68608;49.904;16.436;2023-08-20T06:47:43;9.88;;;9.07;;
79178;SDS011;68608;49.904;16.436;2023-08-20T06:50:09;10.27;;;9.48;;
79178;SDS011;68608;49.904;16.436;2023-08-20T06:52:35;10.10;;;9.18;;
79178;SDS011;68608;49.904;16.436;2023-08-20T06:55:01;10.73;;;9.95;;
79178;SDS011;68608;49.904;16.436;2023-08-20T06:57:27;9.25;;;8.63;;
79178;SDS011;68608;49.904;16.436;2023-08-20T06:59:53;9.40;;;8.80;;
79178;SDS011;68608;49.904;16.436;2023-08-20T07:02:19;10.55;;;9.85;;
79178;SDS011;68608;49.904;16.436;2023-08-20T07:04:45;11.02;;;10.30;;
79178;SDS011;68608;49.904;16.436;2023-08-20T07:07:12;8.68;;;8.10;;
79178;SDS011;68608;49.904;16.436;2023-08-20T07:09:39;10.70;;;10.00;;
79178;SDS011;68608;49.904;16.436;2023-08-20T07:12:05;11.77;;;10.90;;
79178;SDS011;68608;49.904;16.436;2023-08-20T07:14:32;10.38;;;9.68;;
79178;SDS011;68608;49.904;16.436;2023-08-20T07:16:58;10.00;;;9.25;;
79178;SDS011;68608;49.904;16.436;2023-08-20T07:19:27;10.05;;;9.35;;
79178;SDS011;68608;49.904;16.436;2023-08-20T07:21:53;9.45;;;8.85;;
79178;SDS011;68608;49.904;16.436;2023-08-20T07:24:20;10.60;;;9.88;;
79178;SDS011;68608;49.904;16.436;2023-08-20T07:26:50;9.35;;;8.73;;
79178;SDS011;68608;49.904;16.436;2023-08-20T07:29:16;9.00;;;8.40;;
79178;SDS011;68608;49.904;16.436;2023-08-20T07:31:42;9.52;;;8.88;;
79178;SDS011;68608;49.904;16.436;2023-08-20T07:34:08;8.85;;;8.25;;
79178;SDS011;68608;49.904;16.436;2023-08-20T07:36:34;9.65;;;9.05;;
79178;SDS011;68608;49.904;16.436;2023-08-20T07:39:00;9.10;;;8.35;;
79178;SDS011;68608;49.904;16.436;2023-08-20T07:41:26;8.35;;;7.85;;
79178;SDS011;68608;49.904;16.436;2023-08-20T07:43:52;8.63;;;8.00;;
79178;SDS011;68608;49.904;16.436;2023-08-20T07:46:19;8.30;;;7.70;;
79178;SDS011;68608;49.904;16.436;2023-08-20T07:48:45;8.25;;;7.75;;
79178;SDS011;68608;49.904;16.436;2023-08-20T07:51:11;7.95;;;7.47;;
79178;SDS011;68608;49.904;16.436;2023-08-20T07:53:37;7.75;;;7.15;;
79178;SDS011;68608;49.904;16.436;2023-08-20T07:56:03;7.65;;;7.05;;
79178;SDS011;68608;49.904;16.436;2023-08-20T07:58:29;6.20;;;5.53;;
79178;SDS011;68608;49.904;16.436;2023-08-20T08:00:56;6.93;;;6.50;;
79178;SDS011;68608;49.904;16.436;2023-08-20T08:03:24;7.22;;;6.57;;
79178;SDS011;68608;49.904;16.436;2023-08-20T08:05:50;6.10;;;5.70;;
79178;SDS011;68608;49.904;16.436;2023-08-20T08:08:17;6.40;;;5.90;;
79178;SDS011;68608;49.904;16.436;2023-08-20T08:10:43;5.68;;;5.18;;
79178;SDS011;68608;49.904;16.436;2023-08-20T08:13:10;5.32;;;4.95;;
79178;SDS011;68608;49.904;16.436;2023-08-20T08:15:36;5.55;;;5.05;;
79178;SDS011;68608;49.904;16.436;2023-08-20T08:18:03;4.93;;;4.57;;
79178;SDS011;68608;49.904;16.436;2023-08-20T08:20:29;4.15;;;3.85;;
79178;SDS011;68608;49.904;16.436;2023-08-20T08:22:55;5.15;;;4.78;;
79178;SDS011;68608;49.904;16.436;2023-08-20T08:25:21;5.28;;;4.97;;
79178;SDS011;68608;49.904;16.436;2023-08-20T08:27:47;5.53;;;5.05;;
79178;SDS011;68608;49.904;16.436;2023-08-20T08:30:13;5.47;;;5.07;;
79178;SDS011;68608;49.904;16.436;2023-08-20T08:32:39;5.95;;;5.38;;
79178;SDS011;68608;49.904;16.436;2023-08-20T08:35:05;5.10;;;4.65;;
79178;SDS011;68608;49.904;16.436;2023-08-20T08:37:32;4.90;;;4.50;;
79178;SDS011;68608;49.904;16.436;2023-08-20T08:39:59;5.13;;;4.72;;
79178;SDS011;68608;49.904;16.436;2023-08-20T08:42:25;5.68;;;4.93;;
79178;SDS011;68608;49.904;16.436;2023-08-20T08:44:51;5.50;;;4.80;;
79178;SDS011;68608;49.904;16.436;2023-08-20T08:47:18;5.30;;;5.00;;
79178;SDS011;68608;49.904;16.436;2023-08-20T08:49:44;5.35;;;5.03;;
79178;SDS011;68608;49.904;16.436;2023-08-20T08:52:11;5.60;;;5.13;;
79178;SDS011;68608;49.904;16.436;2023-08-20T08:54:37;5.43;;;5.03;;
79178;SDS011;68608;49.904;16.436;2023-08-20T08:57:04;5.35;;;4.85;;
79178;SDS011;68608;49.904;16.436;2023-08-20T08:59:31;5.00;;;4.65;;
79178;SDS011;68608;49.904;16.436;2023-08-20T09:01:57;4.85;;;4.55;;
79178;SDS011;68608;49.904;16.436;2023-08-20T09:04:23;5.55;;;4.90;;
79178;SDS011;68608;49.904;16.436;2023-08-20T09:06:50;4.82;;;4.47;;
79178;SDS011;68608;49.904;16.436;2023-08-20T09:09:17;4.47;;;4.18;;
79178;SDS011;68608;49.904;16.436;2023-08-20T09:11:43;6.25;;;5.00;;
79178;SDS011;68608;49.904;16.436;2023-08-20T09:14:22;4.80;;;4.45;;
79178;SDS011;68608;49.904;16.436;2023-08-20T09:16:58;5.70;;;5.20;;
79178;SDS011;68608;49.904;16.436;2023-08-20T09:19:24;5.00;;;4.70;;
79178;SDS011;68608;49.904;16.436;2023-08-20T09:21:53;6.25;;;5.53;;
79178;SDS011;68608;49.904;16.436;2023-08-20T09:24:33;5.70;;;5.28;;
79178;SDS011;68608;49.904;16.436;2023-08-20T09:27:01;6.00;;;5.50;;
79178;SDS011;68608;49.904;16.436;2023-08-20T09:29:31;5.50;;;5.05;;
79178;SDS011;68608;49.904;16.436;2023-08-20T09:32:00;4.93;;;4.63;;
79178;SDS011;68608;49.904;16.436;2023-08-20T09:34:36;5.00;;;4.70;;
79178;SDS011;68608;49.904;16.436;2023-08-20T09:37:03;6.18;;;5.03;;
79178;SDS011;68608;49.904;16.436;2023-08-20T09:39:29;5.60;;;5.10;;
79178;SDS011;68608;49.904;16.436;2023-08-20T09:41:55;5.50;;;5.10;;
79178;SDS011;68608;49.904;16.436;2023-08-20T09:44:23;5.53;;;5.13;;
79178;SDS011;68608;49.904;16.436;2023-08-20T09:46:49;5.22;;;4.82;;
79178;SDS011;68608;49.904;16.436;2023-08-20T09:49:16;5.38;;;4.97;;
79178;SDS011;68608;49.904;16.436;2023-08-20T09:51:43;5.45;;;5.05;;
79178;SDS011;68608;49.904;16.436;2023-08-20T09:56:38;5.97;;;5.47;;
79178;SDS011;68608;49.904;16.436;2023-08-20T09:59:04;6.00;;;5.50;;
79178;SDS011;68608;49.904;16.436;2023-08-20T10:01:31;5.80;;;5.25;;
79178;SDS011;68608;49.904;16.436;2023-08-20T10:03:58;5.60;;;5.18;;
79178;SDS011;68608;49.904;16.436;2023-08-20T10:06:24;5.50;;;5.20;;
79178;SDS011;68608;49.904;16.436;2023-08-20T10:08:51;5.80;;;5.35;;
79178;SDS011;68608;49.904;16.436;2023-08-20T10:11:17;5.35;;;4.97;;
79178;SDS011;68608;49.904;16.436;2023-08-20T10:13:43;5.30;;;4.80;;
79178;SDS011;68608;49.904;16.436;2023-08-20T10:16:12;5.72;;;5.28;;
79178;SDS011;68608;49.904;16.436;2023-08-20T10:18:39;5.60;;;5.30;;
79178;SDS011;68608;49.904;16.436;2023-08-20T10:21:05;5.50;;;5.20;;
79178;SDS011;68608;49.904;16.436;2023-08-20T10:23:34;5.47;;;5.03;;
79178;SDS011;68608;49.904;16.436;2023-08-20T10:26:07;5.43;;;5.07;;
79178;SDS011;68608;49.904;16.436;2023-08-20T10:28:34;5.55;;;5.15;;
79178;SDS011;68608;49.904;16.436;2023-08-20T10:33:35;4.75;;;4.35;;
79178;SDS011;68608;49.904;16.436;2023-08-20T10:36:09;5.30;;;4.80;;
79178;SDS011;68608;49.904;16.436;2023-08-20T10:38:36;4.88;;;4.50;;
79178;SDS011;68608;49.904;16.436;2023-08-20T10:41:04;5.22;;;4.93;;
79178;SDS011;68608;49.904;16.436;2023-08-20T10:43:32;4.50;;;4.30;;
79178;SDS011;68608;49.904;16.436;2023-08-20T10:46:02;4.80;;;4.45;;
79178;SDS011;68608;49.904;16.436;2023-08-20T10:48:29;5.10;;;4.70;;
79178;SDS011;68608;49.904;16.436;2023-08-20T10:50:55;4.55;;;4.25;;
79178;SDS011;68608;49.904;16.436;2023-08-20T10:53:22;5.25;;;4.80;;
79178;SDS011;68608;49.904;16.436;2023-08-20T10:55:48;5.55;;;5.13;;
79178;SDS011;68608;49.904;16.436;2023-08-20T10:58:15;5.40;;;5.00;;
79178;SDS011;68608;49.904;16.436;2023-08-20T11:00:42;5.60;;;4.75;;
79178;SDS011;68608;49.904;16.436;2023-08-20T11:03:08;5.93;;;5.35;;
79178;SDS011;68608;49.904;16.436;2023-08-20T11:05:35;7.28;;;5.32;;
79178;SDS011;68608;49.904;16.436;2023-08-20T11:08:01;5.50;;;5.10;;
79178;SDS011;68608;49.904;16.436;2023-08-20T11:10:30;5.75;;;5.25;;
79178;SDS011;68608;49.904;16.436;2023-08-20T11:12:57;5.78;;;5.07;;
79178;SDS011;68608;49.904;16.436;2023-08-20T11:15:23;5.60;;;5.28;;
79178;SDS011;68608;49.904;16.436;2023-08-20T11:17:49;5.38;;;5.07;;
79178;SDS011;68608;49.904;16.436;2023-08-20T11:20:15;5.40;;;5.10;;
79178;SDS011;68608;49.904;16.436;2023-08-20T11:22:41;6.00;;;5.47;;
79178;SDS011;68608;49.904;16.436;2023-08-20T11:25:10;4.90;;;4.63;;
79178;SDS011;68608;49.904;16.436;2023-08-20T11:27:41;6.18;;;5.68;;
79178;SDS011;68608;49.904;16.436;2023-08-20T11:30:07;5.85;;;5.32;;
79178;SDS011;68608;49.904;16.436;2023-08-20T11:32:34;6.18;;;5.72;;
79178;SDS011;68608;49.904;16.436;2023-08-20T11:35:01;5.35;;;4.97;;
79178;SDS011;68608;49.904;16.436;2023-08-20T11:37:27;6.13;;;5.65;;
79178;SDS011;68608;49.904;16.436;2023-08-20T11:39:53;5.70;;;5.40;;
79178;SDS011;68608;49.904;16.436;2023-08-20T11:42:19;6.22;;;5.78;;
79178;SDS011;68608;49.904;16.436;2023-08-20T11:44:46;6.20;;;5.60;;
79178;SDS011;68608;49.904;16.436;2023-08-20T11:47:13;6.38;;;5.90;;
79178;SDS011;68608;49.904;16.436;2023-08-20T11:49:39;5.15;;;4.80;;
79178;SDS011;68608;49.904;16.436;2023-08-20T11:52:05;6.35;;;5.78;;
79178;SDS011;68608;49.904;16.436;2023-08-20T11:54:31;5.68;;;5.22;;
79178;SDS011;68608;49.904;16.436;2023-08-20T11:57:01;6.55;;;6.05;;
79178;SDS011;68608;49.904;16.436;2023-08-20T11:59:28;5.47;;;5.07;;
79178;SDS011;68608;49.904;16.436;2023-08-20T12:01:57;7.05;;;6.55;;
79178;SDS011;68608;49.904;16.436;2023-08-20T12:04:25;6.90;;;6.30;;
79178;SDS011;68608;49.904;16.436;2023-08-20T12:07:01;6.43;;;6.03;;
79178;SDS011;68608;49.904;16.436;2023-08-20T12:09:29;7.13;;;6.53;;
79178;SDS011;68608;49.904;16.436;2023-08-20T12:11:55;5.93;;;5.53;;
79178;SDS011;68608;49.904;16.436;2023-08-20T12:14:23;6.75;;;6.25;;
79178;SDS011;68608;49.904;16.436;2023-08-20T12:16:49;6.55;;;6.15;;
79178;SDS011;68608;49.904;16.436;2023-08-20T12:19:18;6.78;;;6.18;;
79178;SDS011;68608;49.904;16.436;2023-08-20T12:21:44;6.93;;;6.35;;
79178;SDS011;68608;49.904;16.436;2023-08-20T12:24:11;6.88;;;6.28;;
79178;SDS011;68608;49.904;16.436;2023-08-20T12:26:37;6.70;;;6.20;;
79178;SDS011;68608;49.904;16.436;2023-08-20T12:29:03;5.97;;;5.57;;
79178;SDS011;68608;49.904;16.436;2023-08-20T12:31:31;6.55;;;5.95;;
79178;SDS011;68608;49.904;16.436;2023-08-20T12:33:57;6.13;;;5.70;;
79178;SDS011;68608;49.904;16.436;2023-08-20T12:36:23;5.53;;;5.13;;
79178;SDS011;68608;49.904;16.436;2023-08-20T12:38:49;7.18;;;6.47;;
79178;SDS011;68608;49.904;16.436;2023-08-20T12:41:15;6.80;;;6.22;;
79178;SDS011;68608;49.904;16.436;2023-08-20T12:43:41;7.15;;;6.45;;
79178;SDS011;68608;49.904;16.436;2023-08-20T12:46:07;6.82;;;6.22;;
79178;SDS011;68608;49.904;16.436;2023-08-20T12:48:33;6.38;;;5.85;;
79178;SDS011;68608;49.904;16.436;2023-08-20T12:50:59;6.57;;;6.00;;
79178;SDS011;68608;49.904;16.436;2023-08-20T12:53:25;5.78;;;5.38;;
79178;SDS011;68608;49.904;16.436;2023-08-20T12:55:51;7.07;;;6.43;;
79178;SDS011;68608;49.904;16.436;2023-08-20T12:58:17;7.18;;;6.57;;
79178;SDS011;68608;49.904;16.436;2023-08-20T13:00:43;6.57;;;5.90;;
79178;SDS011;68608;49.904;16.436;2023-08-20T13:03:10;6.22;;;5.82;;
79178;SDS011;68608;49.904;16.436;2023-08-20T13:05:36;6.72;;;6.22;;
79178;SDS011;68608;49.904;16.436;2023-08-20T13:08:02;6.60;;;6.10;;
79178;SDS011;68608;49.904;16.436;2023-08-20T13:10:28;6.70;;;5.60;;
79178;SDS011;68608;49.904;16.436;2023-08-20T13:12:54;4.95;;;4.63;;
79178;SDS011;68608;49.904;16.436;2023-08-20T13:15:23;5.38;;;4.78;;
79178;SDS011;68608;49.904;16.436;2023-08-20T13:17:50;5.68;;;5.20;;
79178;SDS011;68608;49.904;16.436;2023-08-20T13:20:16;6.18;;;5.70;;
79178;SDS011;68608;49.904;16.436;2023-08-20T13:22:47;6.78;;;6.07;;
79178;SDS011;68608;49.904;16.436;2023-08-20T13:25:13;5.30;;;4.90;;
79178;SDS011;68608;49.904;16.436;2023-08-20T13:27:40;5.78;;;5.28;;
79178;SDS011;68608;49.904;16.436;2023-08-20T13:30:06;5.80;;;5.32;;
79178;SDS011;68608;49.904;16.436;2023-08-20T13:32:33;6.97;;;6.18;;
79178;SDS011;68608;49.904;16.436;2023-08-20T13:34:59;5.70;;;5.20;;
79178;SDS011;68608;49.904;16.436;2023-08-20T13:37:25;5.47;;;5.05;;
79178;SDS011;68608;49.904;16.436;2023-08-20T13:39:51;6.63;;;5.95;;
79178;SDS011;68608;49.904;16.436;2023-08-20T13:42:17;6.38;;;5.85;;
79178;SDS011;68608;49.904;16.436;2023-08-20T13:44:43;6.30;;;5.90;;
79178;SDS011;68608;49.904;16.436;2023-08-20T13:47:10;6.80;;;6.30;;
79178;SDS011;68608;49.904;16.436;2023-08-20T13:49:36;6.03;;;5.63;;
79178;SDS011;68608;49.904;16.436;2023-08-20T13:52:02;6.90;;;6.32;;
79178;SDS011;68608;49.904;16.436;2023-08-20T13:54:28;5.95;;;5.50;;
79178;SDS011;68608;49.904;16.436;2023-08-20T13:56:54;7.13;;;5.65;;
79178;SDS011;68608;49.904;16.436;2023-08-20T13:59:20;6.80;;;6.15;;
79178;SDS011;68608;49.904;16.436;2023-08-20T14:01:46;5.80;;;5.40;;
79178;SDS011;68608;49.904;16.436;2023-08-20T14:04:15;6.15;;;5.65;;
79178;SDS011;68608;49.904;16.436;2023-08-20T14:06:41;5.53;;;5.20;;
79178;SDS011;68608;49.904;16.436;2023-08-20T14:09:07;6.75;;;6.05;;
79178;SDS011;68608;49.904;16.436;2023-08-20T14:11:33;6.70;;;6.15;;
79178;SDS011;68608;49.904;16.436;2023-08-20T14:13:59;6.18;;;5.70;;
79178;SDS011;68608;49.904;16.436;2023-08-20T14:16:25;6.78;;;6.28;;
79178;SDS011;68608;49.904;16.436;2023-08-20T14:18:51;6.60;;;6.00;;
79178;SDS011;68608;49.904;16.436;2023-08-20T14:21:17;6.82;;;5.65;;
79178;SDS011;68608;49.904;16.436;2023-08-20T14:23:44;5.57;;;4.95;;
79178;SDS011;68608;49.904;16.436;2023-08-20T14:26:10;6.47;;;5.95;;
79178;SDS011;68608;49.904;16.436;2023-08-20T14:28:36;7.35;;;6.05;;
79178;SDS011;68608;49.904;16.436;2023-08-20T14:31:04;5.63;;;5.20;;
79178;SDS011;68608;49.904;16.436;2023-08-20T14:33:31;5.72;;;5.28;;
79178;SDS011;68608;49.904;16.436;2023-08-20T14:35:57;5.38;;;5.07;;